Time;durP1;ratioP1;P1;durP2;ratioP2;P2;SDS_P1;SDS_P2;PMS_P1;PMS_P2;Temp;Humidity;BMP_temperature;BMP_pressure;BME280_temperature;BME280_humidity;BME280_pressure;Samples;Min_cycle;Max_cycle;Signal;HPM_P1;HPM_P2
2022/11/30 00:00:36;;;;;;;66.10;25.90;;;5.00;99.90;;;3.28;100.00;101255.34;5018862;28;20388;-74
2022/11/30 00:03:03;;;;;;;71.50;25.50;;;5.00;99.90;;;3.27;100.00;101267.13;5019489;28;20034;-75
2022/11/30 00:05:29;;;;;;;65.40;24.65;;;5.00;99.90;;;3.25;100.00;101265.59;5029084;28;20022;-74
2022/11/30 00:07:55;;;;;;;69.15;24.42;;;4.90;99.90;;;3.25;100.00;101270.97;5026294;28;20756;-74
2022/11/30 00:10:21;;;;;;;67.72;24.88;;;4.90;99.90;;;3.23;100.00;101271.16;5028909;28;20034;-73
2022/11/30 00:12:48;;;;;;;63.65;24.63;;;4.90;99.90;;;3.23;100.00;101272.97;5025827;28;20113;-74
2022/11/30 00:15:16;;;;;;;61.75;24.50;;;4.90;99.90;;;3.22;100.00;101272.16;5023770;28;20484;-74
2022/11/30 00:17:45;;;;;;;65.03;24.17;;;4.90;99.90;;;3.24;100.00;101272.84;5029178;28;20112;-74
2022/11/30 00:20:14;;;;;;;61.40;25.23;;;4.90;99.90;;;3.24;100.00;101274.66;5028859;28;20092;-74
2022/11/30 00:22:40;;;;;;;63.33;23.85;;;4.90;99.90;;;3.22;100.00;101271.28;5028184;28;20026;-74
2022/11/30 00:25:07;;;;;;;56.90;22.58;;;4.90;99.90;;;3.25;100.00;101271.84;5029582;28;20029;-74
2022/11/30 00:27:34;;;;;;;54.50;23.00;;;4.90;99.90;;;3.27;100.00;101269.84;5029470;28;20106;-73
2022/11/30 00:30:00;;;;;;;57.58;22.75;;;4.90;99.90;;;3.29;100.00;101280.44;5028403;28;20022;-74
2022/11/30 00:32:27;;;;;;;53.88;22.23;;;4.90;99.90;;;3.29;100.00;101275.06;5027676;28;20033;-73
2022/11/30 00:34:54;;;;;;;60.05;23.13;;;5.00;99.90;;;3.28;100.00;101273.38;5026268;28;20033;-74
2022/11/30 00:37:20;;;;;;;60.58;24.17;;;4.90;99.90;;;3.24;100.00;101271.97;5028483;28;20048;-74
2022/11/30 00:39:46;;;;;;;56.97;23.13;;;4.90;99.90;;;3.27;100.00;101271.66;5027658;28;20106;-74
2022/11/30 00:42:11;;;;;;;60.08;22.40;;;4.90;99.90;;;3.26;100.00;101280.75;5027956;28;20049;-74
2022/11/30 00:44:38;;;;;;;55.20;21.65;;;4.90;99.90;;;3.24;100.00;101277.38;5028079;28;20053;-74
2022/11/30 00:47:03;;;;;;;54.10;21.10;;;4.90;99.90;;;3.26;100.00;101281.63;5028410;28;20324;-73
2022/11/30 00:49:29;;;;;;;59.45;21.85;;;4.90;99.90;;;3.25;100.00;101279.94;5028005;28;20079;-73
2022/11/30 00:51:55;;;;;;;56.83;21.52;;;4.90;99.90;;;3.21;100.00;101270.44;5028225;28;20447;-73
2022/11/30 00:54:21;;;;;;;58.20;22.67;;;5.00;99.90;;;3.29;100.00;101273.22;5027532;28;20488;-74
2022/11/30 00:56:46;;;;;;;53.17;21.60;;;5.00;99.90;;;3.31;100.00;101273.06;5027416;28;20037;-74
2022/11/30 00:59:12;;;;;;;53.05;21.58;;;5.00;99.90;;;3.33;100.00;101279.16;5028680;28;20063;-74
2022/11/30 01:01:38;;;;;;;55.65;22.25;;;5.00;99.90;;;3.33;100.00;101279.16;5026542;28;20088;-74
2022/11/30 01:04:04;;;;;;;54.92;21.35;;;5.00;99.90;;;3.29;100.00;101269.66;5025775;28;20048;-73
2022/11/30 01:06:30;;;;;;;61.13;22.65;;;5.00;99.90;;;3.29;100.00;101269.66;5028220;28;20116;-74
2022/11/30 01:08:57;;;;;;;55.40;20.83;;;5.00;99.90;;;3.25;100.00;101269.13;5027527;28;20199;-74
2022/11/30 01:11:26;;;;;;;53.03;21.08;;;4.90;99.90;;;3.28;100.00;101273.38;5027402;28;20496;-75
2022/11/30 01:13:54;;;;;;;54.88;21.20;;;4.90;99.90;;;3.29;100.00;101281.31;5027310;28;20412;-74
2022/11/30 01:16:28;;;;;;;62.78;22.73;;;4.90;99.90;;;3.28;100.00;101282.31;5025750;28;20033;-73
2022/11/30 01:18:54;;;;;;;54.92;20.90;;;4.90;99.90;;;3.24;100.00;101274.66;5018665;28;20128;-73
2022/11/30 01:21:24;;;;;;;55.08;20.55;;;4.90;99.90;;;3.29;100.00;101283.16;5027512;28;20049;-74
2022/11/30 01:23:50;;;;;;;54.80;20.27;;;4.90;99.90;;;3.28;100.00;101276.06;5026070;28;20522;-73
2022/11/30 01:26:17;;;;;;;51.65;21.05;;;4.90;99.90;;;3.29;100.00;101284.00;5033773;28;20056;-74
2022/11/30 01:28:44;;;;;;;53.38;20.05;;;4.90;99.90;;;3.27;100.00;101283.31;5028330;28;20026;-75
2022/11/30 01:31:12;;;;;;;53.33;20.97;;;4.90;99.90;;;3.30;100.00;101283.00;5027952;28;20026;-74
2022/11/30 01:33:39;;;;;;;54.50;20.48;;;5.00;99.90;;;3.31;100.00;101279.31;5027078;28;20033;-74
2022/11/30 01:36:17;;;;;;;48.03;18.52;;;5.00;99.90;;;3.31;100.00;101273.06;5027940;28;20034;-74
2022/11/30 01:38:49;;;;;;;47.33;19.92;;;5.00;99.90;;;3.33;100.00;101278.31;5025832;28;20067;-74
2022/11/30 01:41:24;;;;;;;49.33;19.50;;;5.00;99.90;;;3.33;100.00;101281.00;5026471;28;20431;-77
2022/11/30 01:43:54;;;;;;;44.00;19.52;;;5.00;99.90;;;3.33;100.00;101289.97;5027135;28;20033;-77
2022/11/30 01:46:43;;;;;;;49.75;19.30;;;5.00;99.90;;;3.33;100.00;101286.41;5027769;28;20028;-78
2022/11/30 01:49:09;;;;;;;40.58;18.80;;;5.00;99.90;;;3.36;100.00;101292.34;5027212;28;20033;-77
2022/11/30 01:51:43;;;;;;;46.45;19.45;;;5.00;99.90;;;3.36;100.00;101288.78;5027282;28;20033;-77
2022/11/30 01:54:15;;;;;;;39.22;17.05;;;5.00;99.90;;;3.39;100.00;101299.25;5023070;28;20043;-77
2022/11/30 01:56:50;;;;;;;40.15;17.25;;;5.00;99.90;;;3.38;100.00;101294.88;5028262;28;20033;-77
2022/11/30 01:59:20;;;;;;;41.03;18.25;;;5.00;99.90;;;3.40;100.00;101296.44;5027923;28;20038;-78
2022/11/30 02:01:47;;;;;;;42.92;17.98;;;5.00;99.90;;;3.42;100.00;101294.41;5027217;28;20029;-77
2022/11/30 02:04:29;;;;;;;39.25;18.13;;;5.00;99.90;;;3.45;100.00;101293.28;5027875;28;20076;-77
2022/11/30 02:06:57;;;;;;;39.47;17.00;;;5.10;99.90;;;3.42;100.00;101290.84;5027184;28;20021;-77
2022/11/30 02:09:26;;;;;;;36.85;17.20;;;5.10;99.90;;;3.42;100.00;101293.56;5026093;28;20380;-77
2022/11/30 02:11:52;;;;;;;34.83;16.88;;;5.10;99.90;;;3.43;100.00;101292.56;5023000;28;20077;-77
2022/11/30 02:14:17;;;;;;;40.83;17.55;;;5.10;99.90;;;3.44;100.00;101289.72;5026470;28;20068;-77
2022/11/30 02:16:55;;;;;;;35.72;17.20;;;5.10;99.90;;;3.45;100.00;101291.41;5026275;28;20057;-77
2022/11/30 02:19:49;;;;;;;41.13;17.13;;;5.10;99.90;;;3.43;100.00;101297.94;5025753;28;20044;-77
2022/11/30 02:23:01;;;;;;;37.25;17.48;;;5.10;99.90;;;3.43;100.00;101297.94;5023993;28;20384;-77
2022/11/30 02:25:49;;;;;;;36.50;16.50;;;5.10;99.90;;;3.41;100.00;101299.97;5025856;28;20438;-77
2022/11/30 02:28:44;;;;;;;37.33;17.10;;;5.10;99.90;;;3.39;100.00;101293.88;5021727;28;20041;-78
2022/11/30 02:31:18;;;;;;;32.28;15.15;;;5.00;99.90;;;3.38;100.00;101294.88;5024991;28;20044;-77
2022/11/30 02:33:48;;;;;;;34.75;15.93;;;5.00;99.90;;;3.40;100.00;101293.72;5026097;28;20112;-77
2022/11/30 02:36:15;;;;;;;32.90;16.23;;;5.10;99.90;;;3.39;100.00;101288.47;5024974;28;20122;-77
2022/11/30 02:38:41;;;;;;;35.80;16.73;;;5.00;99.90;;;3.43;100.00;101292.56;5025785;28;20032;-78
2022/11/30 02:41:07;;;;;;;36.17;17.20;;;5.00;99.90;;;3.41;100.00;101286.47;5026011;28;20034;-77
2022/11/30 02:43:34;;;;;;;33.47;16.00;;;5.00;99.90;;;3.39;100.00;101292.03;5025463;28;20065;-77
2022/11/30 02:46:26;;;;;;;32.27;15.77;;;5.00;99.90;;;3.41;100.00;101283.78;5025575;28;20080;-77
2022/11/30 02:49:20;;;;;;;34.17;16.45;;;5.00;99.90;;;3.37;100.00;101282.38;5026640;28;20029;-77
2022/11/30 02:51:47;;;;;;;33.47;15.45;;;5.00;99.90;;;3.36;100.00;101280.69;5025520;28;20040;-77
2022/11/30 02:54:13;;;;;;;29.23;14.93;;;5.00;99.90;;;3.40;100.00;101288.34;5025346;28;20034;-77
2022/11/30 02:56:39;;;;;;;35.83;15.77;;;5.00;99.90;;;3.36;100.00;101280.69;5026368;28;20522;-77
2022/11/30 02:59:05;;;;;;;35.33;16.63;;;5.10;99.90;;;3.35;100.00;101284.41;5025254;28;20036;-77
2022/11/30 03:01:30;;;;;;;32.42;15.93;;;5.10;99.90;;;3.40;100.00;101301.81;5025695;28;20403;-77
2022/11/30 03:03:57;;;;;;;33.15;16.23;;;5.10;99.90;;;3.38;100.00;101301.13;5025379;28;20124;-77
2022/11/30 03:06:22;;;;;;;31.90;15.73;;;5.00;99.90;;;3.37;100.00;101304.81;5025935;28;20160;-77
2022/11/30 03:08:48;;;;;;;32.10;16.35;;;5.00;99.90;;;3.35;100.00;101289.78;5025786;28;20107;-77
2022/11/30 03:11:14;;;;;;;32.08;15.52;;;5.00;99.90;;;3.34;100.00;101299.75;5026141;28;20032;-77
2022/11/30 03:13:40;;;;;;;32.40;15.98;;;5.00;99.90;;;3.35;100.00;101308.66;5027174;28;20017;-77
2022/11/30 03:16:11;;;;;;;29.88;14.73;;;5.00;99.90;;;3.35;100.00;101317.63;5025422;28;20056;-77
2022/11/30 03:18:38;;;;;;;36.63;16.08;;;5.00;99.90;;;3.31;100.00;101308.97;5025866;28;20033;-77
2022/11/30 03:21:06;;;;;;;32.08;16.05;;;5.00;99.90;;;3.31;100.00;101310.81;5025610;28;20439;-77
2022/11/30 03:23:34;;;;;;;35.15;16.42;;;4.90;99.90;;;3.29;100.00;101307.41;5026633;28;20124;-77
2022/11/30 03:26:00;;;;;;;33.75;15.80;;;5.00;99.90;;;3.29;100.00;101308.28;5026134;28;20033;-77
2022/11/30 03:28:26;;;;;;;31.38;14.13;;;4.90;99.90;;;3.29;100.00;101308.28;5025160;28;20160;-77
2022/11/30 03:30:52;;;;;;;33.97;15.18;;;4.90;99.90;;;3.30;100.00;101309.97;5025519;28;20112;-76
2022/11/30 03:33:18;;;;;;;31.10;15.75;;;4.90;99.90;;;3.29;100.00;101304.72;5024664;28;20612;-77
2022/11/30 03:35:44;;;;;;;33.58;15.48;;;4.90;99.90;;;3.33;100.00;101316.94;5024883;28;20026;-75
2022/11/30 03:38:10;;;;;;;32.33;16.27;;;4.90;99.90;;;3.34;100.00;101318.63;5026757;28;20084;-76
2022/11/30 03:40:37;;;;;;;34.88;16.92;;;5.00;99.90;;;3.35;100.00;101316.75;5025331;28;20034;-76
2022/11/30 03:43:03;;;;;;;30.17;15.23;;;5.00;99.90;;;3.35;100.00;101319.47;5025672;28;20491;-76
2022/11/30 03:45:29;;;;;;;29.25;15.07;;;5.00;99.90;;;3.35;100.00;101317.63;5025542;28;20387;-76
2022/11/30 03:47:55;;;;;;;34.17;16.33;;;5.00;99.90;;;3.36;100.00;101315.75;5025418;28;20037;-76
2022/11/30 03:50:21;;;;;;;31.67;15.77;;;5.00;99.90;;;3.38;100.00;101327.25;5024882;28;20025;-77
2022/11/30 03:52:47;;;;;;;34.60;15.98;;;5.00;99.90;;;3.36;100.00;101313.94;5025230;28;20214;-76
2022/11/30 03:55:13;;;;;;;35.15;16.23;;;5.00;99.90;;;3.37;100.00;101325.53;5026080;28;20041;-77
2022/11/30 03:57:39;;;;;;;32.97;15.52;;;5.00;99.90;;;3.37;100.00;101320.16;5025660;28;20037;-77
2022/11/30 04:00:06;;;;;;;31.15;15.27;;;5.00;99.90;;;3.35;100.00;101314.94;5025536;28;20034;-76
2022/11/30 04:02:37;;;;;;;34.42;15.45;;;5.00;99.90;;;3.40;100.00;101322.53;5026481;28;20091;-76
2022/11/30 04:05:03;;;;;;;32.88;15.30;;;5.00;99.90;;;3.39;100.00;101329.81;5024788;28;20227;-76
2022/11/30 04:07:29;;;;;;;32.83;15.35;;;5.00;99.90;;;3.32;100.00;101315.25;5025104;28;20048;-76
2022/11/30 04:09:54;;;;;;;36.13;15.63;;;5.00;99.90;;;3.39;100.00;101327.09;5025292;28;20038;-76
2022/11/30 04:12:21;;;;;;;33.60;15.75;;;5.00;99.90;;;3.39;100.00;101329.81;5025893;28;20036;-76
2022/11/30 04:14:46;;;;;;;35.08;16.35;;;5.00;99.90;;;3.37;100.00;101330.94;5025687;28;20029;-76
2022/11/30 04:17:12;;;;;;;32.67;15.95;;;5.00;99.90;;;3.31;100.00;101325.16;5023503;28;20135;-75
2022/11/30 04:19:38;;;;;;;38.05;16.40;;;5.10;99.90;;;3.38;100.00;101335.34;5025631;28;20038;-77
2022/11/30 04:22:03;;;;;;;36.40;16.33;;;5.00;99.90;;;3.29;100.00;101331.69;5024761;28;20064;-77
2022/11/30 04:24:29;;;;;;;36.03;16.17;;;5.00;99.90;;;3.31;100.00;101340.47;5024791;28;20026;-76
2022/11/30 04:26:55;;;;;;;34.97;16.08;;;5.00;99.90;;;3.34;100.00;101356.38;5023418;28;20025;-76
2022/11/30 04:29:21;;;;;;;36.30;16.20;;;5.00;99.90;;;3.35;100.00;101351.81;5024921;28;20029;-76
2022/11/30 04:31:47;;;;;;;36.70;16.67;;;5.00;99.90;;;3.37;100.00;101352.53;5023124;28;20036;-76
2022/11/30 04:34:12;;;;;;;37.67;16.45;;;5.00;99.90;;;3.36;100.00;101354.38;5025486;28;20405;-76
2022/11/30 04:36:38;;;;;;;41.17;17.23;;;5.00;99.90;;;3.35;100.00;101343.75;5021437;28;20053;-76
2022/11/30 04:39:04;;;;;;;35.45;16.60;;;5.00;99.90;;;3.37;100.00;101345.28;5024298;28;20049;-77
2022/11/30 04:41:30;;;;;;;39.92;17.15;;;5.00;99.90;;;3.38;100.00;101346.13;5024894;28;20049;-77
2022/11/30 04:43:55;;;;;;;37.25;17.02;;;5.00;99.90;;;3.34;100.00;101337.50;5024808;28;20104;-77
2022/11/30 04:46:21;;;;;;;40.00;17.08;;;5.00;99.90;;;3.37;100.00;101337.19;5025839;28;20599;-77
2022/11/30 04:48:47;;;;;;;40.92;17.92;;;5.00;99.90;;;3.37;100.00;101339.03;5025584;28;20075;-77
2022/11/30 04:51:12;;;;;;;40.80;18.23;;;5.00;99.90;;;3.38;100.00;101346.13;5028973;28;20044;-77
2022/11/30 04:53:38;;;;;;;39.47;18.33;;;5.00;99.90;;;3.40;100.00;101347.69;5028936;28;20034;-76
2022/11/30 04:56:10;;;;;;;46.75;18.58;;;5.00;99.90;;;3.40;100.00;101346.81;5028353;28;20120;-77
2022/11/30 04:58:40;;;;;;;39.30;18.30;;;5.00;99.90;;;3.40;100.00;101349.50;5027597;28;20080;-77
2022/11/30 05:01:06;;;;;;;40.10;17.45;;;5.00;99.90;;;3.40;100.00;101353.06;5027962;28;20114;-77
2022/11/30 05:03:32;;;;;;;39.97;18.55;;;5.00;99.90;;;3.41;100.00;101353.91;5027643;28;20561;-77
2022/11/30 05:05:58;;;;;;;42.58;18.10;;;5.10;99.90;;;3.42;100.00;101355.59;5028505;28;20129;-76
2022/11/30 05:08:23;;;;;;;43.05;18.35;;;5.10;99.90;;;3.41;100.00;101351.22;5028832;28;20037;-77
2022/11/30 05:10:53;;;;;;;42.58;17.65;;;5.10;99.90;;;3.45;100.00;101355.31;5029371;28;20176;-77
2022/11/30 05:13:22;;;;;;;39.20;18.27;;;5.10;99.90;;;3.45;100.00;101355.31;5027513;28;20107;-77
2022/11/30 05:15:47;;;;;;;44.67;19.90;;;5.10;99.90;;;3.44;100.00;101346.38;5028688;28;20530;-77
2022/11/30 05:18:14;;;;;;;40.30;17.80;;;5.10;99.90;;;3.47;100.00;101363.25;5028331;28;20045;-77
2022/11/30 05:20:40;;;;;;;44.88;18.70;;;5.10;99.90;;;3.44;100.00;101361.69;5028991;28;20415;-77
2022/11/30 05:23:06;;;;;;;40.72;18.10;;;5.10;99.90;;;3.42;100.00;101358.31;5028719;28;20056;-77
2022/11/30 05:25:32;;;;;;;42.25;18.90;;;5.10;99.90;;;3.44;100.00;101359.84;5027368;28;20030;-77
2022/11/30 05:27:57;;;;;;;45.72;19.13;;;5.10;99.90;;;3.46;100.00;101375.91;5023829;28;20026;-77
2022/11/30 05:30:26;;;;;;;44.65;19.65;;;5.10;99.90;;;3.46;100.00;101373.22;5029226;28;20543;-77
2022/11/30 05:32:52;;;;;;;;;;;5.10;99.90;;;3.46;100.00;101370.50;5023281;28;20037;-77
2022/11/30 05:35:17;;;;;;;46.58;19.20;;;5.10;99.90;;;3.49;100.00;101366.66;5023588;28;20002;-76
2022/11/30 05:37:43;;;;;;;49.85;20.38;;;5.10;99.90;;;3.49;100.00;101369.34;5029171;28;20032;-76
2022/11/30 05:40:09;;;;;;;50.55;20.33;;;5.10;99.90;;;3.47;100.00;101374.91;5025034;28;20033;-76
2022/11/30 05:42:35;;;;;;;52.97;20.63;;;5.10;99.90;;;3.45;100.00;101369.66;5027154;28;20496;-77
2022/11/30 05:45:01;;;;;;;59.22;22.92;;;5.10;99.90;;;3.45;100.00;101371.50;5031189;28;20025;-77
2022/11/30 05:47:26;;;;;;;49.42;20.45;;;5.10;99.90;;;3.40;100.00;101373.78;5035070;28;20028;-75
2022/11/30 05:49:52;;;;;;;50.03;21.30;;;5.10;99.90;;;3.44;100.00;101385.97;5026761;28;20108;-76
2022/11/30 05:52:18;;;;;;;54.30;21.60;;;5.10;99.90;;;3.43;100.00;101389.69;5029722;28;20030;-77
2022/11/30 05:54:43;;;;;;;53.85;20.85;;;5.10;99.90;;;3.40;100.00;101389.97;5020627;28;20116;-77
2022/11/30 05:57:09;;;;;;;57.35;21.17;;;5.10;99.90;;;3.39;100.00;101388.28;5022963;28;20034;-77
2022/11/30 05:59:35;;;;;;;55.60;22.02;;;5.00;99.90;;;3.37;100.00;101392.97;5023729;28;20068;-76
2022/11/30 06:02:00;;;;;;;50.22;20.08;;;5.00;99.90;;;3.40;100.00;101390.84;5022048;28;20072;-77
2022/11/30 06:04:26;;;;;;;51.45;21.35;;;5.00;99.90;;;3.39;100.00;101399.06;5026122;28;20029;-77
2022/11/30 06:06:54;;;;;;;47.55;19.98;;;5.00;99.90;;;3.33;100.00;101389.75;5024585;28;20029;-77
2022/11/30 06:09:21;;;;;;;51.17;20.42;;;5.00;99.90;;;3.37;100.00;101395.69;5027239;28;20412;-77
2022/11/30 06:11:50;;;;;;;49.63;20.23;;;5.00;99.90;;;3.36;100.00;101391.28;5028438;28;20038;-76
2022/11/30 06:14:16;;;;;;;48.63;20.35;;;5.00;99.90;;;3.34;100.00;101390.59;5026809;28;20072;-77
2022/11/30 06:16:42;;;;;;;54.60;21.15;;;5.00;99.90;;;3.36;100.00;101392.16;5028526;28;20052;-77
2022/11/30 06:19:07;;;;;;;54.75;21.45;;;5.00;99.90;;;3.35;100.00;101384.19;5026664;28;20447;-77
2022/11/30 06:21:33;;;;;;;55.80;22.23;;;5.00;99.90;;;3.30;100.00;101377.41;5025892;28;20249;-77
2022/11/30 06:23:59;;;;;;;60.33;23.00;;;5.00;99.90;;;3.35;100.00;101386.91;5026716;28;20021;-77
2022/11/30 06:26:25;;;;;;;59.55;21.73;;;5.00;99.90;;;3.35;100.00;101394.97;5029772;28;20073;-77
2022/11/30 06:28:51;;;;;;;61.78;23.58;;;5.00;99.90;;;3.34;100.00;101391.47;5020880;28;20720;-76
2022/11/30 06:31:16;;;;;;;61.08;22.20;;;5.00;99.90;;;3.37;100.00;101392.97;5025178;28;20038;-76
2022/11/30 06:33:42;;;;;;;58.85;23.42;;;5.00;99.90;;;3.30;100.00;101390.91;5027502;28;20029;-76
2022/11/30 06:36:08;;;;;;;50.85;21.20;;;5.00;99.90;;;3.35;100.00;101397.69;5021252;28;20052;-76
2022/11/30 06:38:34;;;;;;;56.75;22.92;;;5.00;99.90;;;3.38;100.00;101400.06;5025017;28;20620;-75
2022/11/30 06:41:08;;;;;;;54.88;21.15;;;5.00;99.90;;;3.37;100.00;101403.78;5024554;28;20036;-75
2022/11/30 06:43:37;;;;;;;56.88;20.70;;;5.00;99.90;;;3.34;100.00;101396.84;5024393;28;20033;-72
2022/11/30 06:46:05;;;;;;;55.13;21.42;;;5.00;99.90;;;3.31;100.00;101406.09;5024456;28;20123;-74
2022/11/30 06:48:31;;;;;;;54.97;21.50;;;5.00;99.90;;;3.34;100.00;101412.16;5020919;28;20033;-75
2022/11/30 06:50:57;;;;;;;53.20;20.92;;;5.00;99.90;;;3.35;100.00;101414.72;5024437;28;20044;-75
2022/11/30 06:53:24;;;;;;;45.95;20.08;;;5.00;99.90;;;3.38;100.00;101417.13;5025032;28;20033;-74
2022/11/30 06:55:49;;;;;;;49.08;20.65;;;5.00;99.90;;;3.28;100.00;101414.47;5024712;28;20094;-74
2022/11/30 06:58:15;;;;;;;46.78;19.50;;;5.00;99.90;;;3.38;100.00;101418.97;5026265;28;20085;-72
2022/11/30 07:00:42;;;;;;;52.88;21.08;;;5.00;99.90;;;3.40;100.00;101419.66;5020690;28;20073;-73
2022/11/30 07:03:10;;;;;;;53.83;20.52;;;5.00;99.90;;;3.41;100.00;101418.66;5025210;28;20435;-73
2022/11/30 07:05:41;;;;;;;;;;;5.00;99.90;;;3.38;100.00;101421.66;5022263;28;20076;-73
2022/11/30 07:08:07;;;;;;;56.00;21.42;;;5.10;99.90;;;3.41;100.00;101433.00;5026352;28;20363;-73
2022/11/30 07:10:33;;;;;;;49.53;20.40;;;5.10;99.90;;;3.43;100.00;101428.31;5025053;28;20205;-73
2022/11/30 07:12:59;;;;;;;52.58;20.70;;;5.10;99.90;;;3.35;100.00;101425.53;5026217;28;20099;-73
2022/11/30 07:15:25;;;;;;;47.10;19.55;;;5.10;99.90;;;3.42;100.00;101436.53;5025789;28;20059;-73
2022/11/30 07:17:51;;;;;;;51.30;21.27;;;5.10;99.90;;;3.42;100.00;101441.94;5024664;28;20590;-75
2022/11/30 07:20:16;;;;;;;52.53;21.48;;;5.10;99.90;;;3.43;100.00;101447.19;5022436;28;20118;-75
2022/11/30 07:22:42;;;;;;;53.47;21.63;;;5.10;99.90;;;3.44;100.00;101451.59;5022544;28;20049;-75
2022/11/30 07:27:54;;;;;;;52.08;21.42;;;5.10;99.90;;;3.46;100.00;101454.16;5024858;28;20498;-73
2022/11/30 07:30:20;;;;;;;52.30;20.10;;;5.10;99.90;;;3.47;100.00;101454.97;5023892;28;20697;-74
2022/11/30 07:32:46;;;;;;;50.15;20.50;;;5.10;99.90;;;3.46;100.00;101451.44;5025670;28;20037;-74
2022/11/30 07:35:12;;;;;;;50.63;21.45;;;5.10;99.90;;;3.52;100.00;101449.97;5026767;28;20041;-74
2022/11/30 07:37:37;;;;;;;54.35;21.95;;;5.10;99.90;;;3.50;100.00;101454.69;5024467;28;20036;-75
2022/11/30 07:40:04;;;;;;;56.88;22.77;;;5.10;99.90;;;3.55;100.00;101463.16;5025193;28;20074;-75
2022/11/30 07:42:30;;;;;;;54.42;22.17;;;5.20;99.90;;;3.52;100.00;101456.25;5022824;28;20167;-74
2022/11/30 07:44:57;;;;;;;58.95;23.08;;;5.20;99.90;;;3.53;100.00;101459.78;5025058;28;20029;-77
2022/11/30 07:47:22;;;;;;;55.25;22.35;;;5.20;99.90;;;3.57;100.00;101461.16;5024058;28;20036;-75
2022/11/30 07:49:48;;;;;;;60.58;23.30;;;5.20;99.90;;;3.60;100.00;101463.59;5024598;28;20038;-75
2022/11/30 07:52:14;;;;;;;58.85;23.05;;;5.20;99.90;;;3.54;100.00;101446.13;5024685;28;20034;-75
2022/11/30 07:54:40;;;;;;;63.83;23.20;;;5.20;99.90;;;3.64;100.00;101467.69;5026246;28;20084;-75
2022/11/30 07:57:05;;;;;;;60.13;23.23;;;5.30;99.90;;;3.63;100.00;101465.97;5024244;28;20578;-76
2022/11/30 07:59:31;;;;;;;59.97;23.45;;;5.30;99.90;;;3.63;100.00;101467.81;5025113;28;20026;-75
2022/11/30 08:01:57;;;;;;;63.65;23.75;;;5.30;99.90;;;3.58;100.00;101462.84;5028939;28;20065;-75
2022/11/30 08:04:23;;;;;;;59.25;23.17;;;5.30;99.90;;;3.59;100.00;101464.59;5026247;28;20052;-74
2022/11/30 08:06:49;;;;;;;68.07;24.70;;;5.30;99.90;;;3.59;100.00;101464.59;5024028;28;20045;-74
2022/11/30 08:09:14;;;;;;;63.00;23.90;;;5.20;99.90;;;3.58;100.00;101465.56;5027405;28;20025;-75
2022/11/30 08:11:40;;;;;;;64.63;24.35;;;5.30;99.90;;;3.64;100.00;101464.13;5026965;28;20233;-75
2022/11/30 08:14:06;;;;;;;63.38;24.58;;;5.30;99.90;;;3.66;100.00;101459.41;5018452;28;20747;-75
2022/11/30 08:16:37;;;;;;;68.88;25.77;;;5.30;99.90;;;3.70;100.00;101461.66;5017745;28;20084;-74
2022/11/30 08:19:02;;;;;;;64.18;24.52;;;5.30;99.90;;;3.76;100.00;101456.66;5020779;28;20033;-75
2022/11/30 08:21:30;;;;;;;66.65;26.45;;;5.40;99.90;;;3.76;100.00;101453.97;5020465;28;20364;-74
2022/11/30 08:23:56;;;;;;;67.47;24.92;;;5.40;99.90;;;3.82;100.00;101465.00;5025431;28;20246;-76
2022/11/30 08:26:29;;;;;;;65.88;23.55;;;5.40;99.90;;;3.84;100.00;101468.41;5028842;28;20500;-74
2022/11/30 08:28:56;;;;;;;65.70;24.75;;;5.40;99.90;;;3.82;100.00;101473.09;5029695;28;20029;-75
2022/11/30 08:31:29;;;;;;;64.55;24.15;;;5.50;99.90;;;3.87;100.00;101478.88;5030377;28;20557;-75
2022/11/30 08:34:01;;;;;;;69.72;26.08;;;5.50;99.90;;;3.81;100.00;101462.44;5028135;28;20087;-74
2022/11/30 08:36:28;;;;;;;65.85;23.88;;;5.50;99.90;;;3.89;100.00;101473.34;5027225;28;20083;-74
2022/11/30 08:38:57;;;;;;;61.83;23.52;;;5.50;99.90;;;3.87;100.00;101478.88;5026609;28;20056;-74
2022/11/30 08:41:24;;;;;;;59.33;23.75;;;5.50;99.90;;;3.91;100.00;101483.97;5029483;28;20132;-74
2022/11/30 08:43:51;;;;;;;62.78;23.75;;;5.50;99.90;;;3.92;100.00;101486.53;5030257;28;20079;-73
2022/11/30 08:46:21;;;;;;;66.80;24.20;;;5.60;99.90;;;3.95;100.00;101494.34;5028443;28;20030;-74
2022/11/30 08:48:47;;;;;;;77.72;25.98;;;5.60;99.90;;;3.96;100.00;101497.88;5032198;28;20109;-75
2022/11/30 08:51:16;;;;;;;70.95;24.45;;;5.60;99.90;;;3.99;100.00;101492.19;5028940;28;20373;-75
2022/11/30 08:53:43;;;;;;;71.10;25.65;;;5.60;99.90;;;4.06;100.00;101498.66;5027292;28;20160;-75
2022/11/30 08:56:17;;;;;;;65.03;23.67;;;5.70;99.90;;;4.05;100.00;101505.06;5024628;28;20037;-75
2022/11/30 08:58:44;;;;;;;69.75;25.08;;;5.70;99.90;;;4.04;100.00;101511.47;5024286;28;20033;-75
2022/11/30 09:01:20;;;;;;;63.55;23.40;;;5.70;99.90;;;4.03;100.00;101509.78;5022507;28;20483;-73
2022/11/30 09:03:48;;;;;;;66.82;25.55;;;5.70;99.90;;;4.08;100.00;101515.56;5019917;28;20563;-75
2022/11/30 09:06:23;;;;;;;62.72;24.17;;;5.70;99.90;;;4.01;100.00;101504.53;5021672;28;20036;-75
2022/11/30 09:08:52;;;;;;;77.32;27.05;;;5.70;99.90;;;4.11;100.00;101519.78;5026572;28;20036;-75
2022/11/30 09:11:23;;;;;;;;;;;5.70;99.90;;;4.12;100.00;101516.13;5028285;28;20029;-77
2022/11/30 09:13:52;;;;;;;63.08;23.40;;;5.80;99.90;;;4.21;100.00;101522.44;5024748;28;19957;-76
2022/11/30 09:16:19;;;;;;;66.53;25.50;;;5.80;99.90;;;4.20;100.00;101527.00;5024102;28;20115;-74
2022/11/30 09:18:47;;;;;;;68.95;23.75;;;5.80;99.90;;;4.22;100.00;101522.28;5028606;28;20104;-75
2022/11/30 09:21:17;;;;;;;63.25;24.73;;;5.80;99.90;;;4.28;100.00;101523.53;5025755;28;20076;-76
2022/11/30 09:23:44;;;;;;;60.90;24.23;;;5.90;99.90;;;4.34;100.00;101531.03;5026655;28;20057;-76
2022/11/30 09:26:14;;;;;;;62.33;23.80;;;6.00;99.90;;;4.39;100.00;101530.56;5015148;28;20029;-76
2022/11/30 09:28:41;;;;;;;59.05;23.70;;;6.00;99.90;;;4.42;100.00;101536.50;5019959;28;20030;-76
2022/11/30 09:31:12;;;;;;;60.60;23.92;;;6.00;99.90;;;4.43;100.00;101530.09;5024180;28;20040;-74
2022/11/30 09:33:38;;;;;;;62.63;23.20;;;6.10;99.90;;;4.49;100.00;101525.06;5017550;28;20053;-75
2022/11/30 09:36:11;;;;;;;59.33;23.60;;;6.10;99.90;;;4.45;100.00;101527.25;5019196;28;20636;-75
2022/11/30 09:38:38;;;;;;;66.63;25.00;;;6.10;99.90;;;4.53;100.00;101532.72;5023102;28;20080;-75
2022/11/30 09:41:32;;;;;;;66.80;25.38;;;6.20;99.90;;;4.59;100.00;101532.09;5021636;28;20094;-76
2022/11/30 09:44:12;;;;;;;60.05;22.98;;;6.20;99.90;;;4.61;100.00;101527.38;5020475;28;20057;-76
2022/11/30 09:46:48;;;;;;;58.38;24.05;;;6.20;99.90;;;4.62;100.00;101520.13;5028763;28;20091;-75
2022/11/30 09:49:30;;;;;;;62.10;23.17;;;6.30;99.90;;;4.67;100.00;101520.50;5020132;28;20036;-75
2022/11/30 09:52:03;;;;;;;58.47;24.48;;;6.30;99.90;;;4.69;100.00;101531.16;5017754;28;20108;-76
2022/11/30 09:54:44;;;;;;;61.85;25.30;;;6.30;99.90;;;4.71;100.00;101529.16;5026997;28;20033;-75
2022/11/30 09:57:32;;;;;;;62.65;23.75;;;6.30;99.90;;;4.62;100.00;101512.00;5028104;28;20112;-75
2022/11/30 10:00:20;;;;;;;54.65;23.88;;;6.30;99.90;;;4.75;100.00;101519.72;5024932;28;20121;-75
2022/11/30 10:02:50;;;;;;;62.63;23.38;;;6.40;99.90;;;4.72;100.00;101518.16;5024516;28;20061;-76
2022/11/30 10:06:06;;;;;;;63.92;25.63;;;6.30;99.90;;;4.74;100.00;101528.84;5028122;28;20033;-75
2022/11/30 10:08:56;;;;;;;58.60;23.75;;;6.40;99.90;;;4.74;100.00;101512.63;4989418;28;20121;-76
2022/11/30 10:11:44;;;;;;;;;;;6.40;99.90;;;4.73;100.00;101524.44;5023551;28;20032;-76
2022/11/30 10:14:57;;;;;;;72.03;26.23;;;6.40;99.90;;;4.74;100.00;101529.66;5025476;28;20375;-75
2022/11/30 10:17:54;;;;;;;70.07;25.70;;;6.40;99.90;;;4.77;100.00;101524.94;5002115;28;20128;-76